createdAt,value
2018-09-14T00:00:57.283Z,26.90
2018-09-14T00:03:25.850Z,24.37
2018-09-14T00:05:54.731Z,24.23
2018-09-14T00:08:23.291Z,25.90
2018-09-14T00:10:51.836Z,26.40
2018-09-14T00:13:20.427Z,27.83
2018-09-14T00:15:49.481Z,25.03
2018-09-14T00:18:18.199Z,24.73
2018-09-14T00:20:46.759Z,26.10
2018-09-14T00:23:15.334Z,25.10
2018-09-14T00:25:43.903Z,23.83
2018-09-14T00:28:12.531Z,26.10
2018-09-14T00:30:41.114Z,22.63
2018-09-14T00:33:09.645Z,23.83
2018-09-14T00:35:38.172Z,27.43
2018-09-14T00:38:07.138Z,23.73
2018-09-14T00:40:35.689Z,22.43
2018-09-14T00:43:04.234Z,23.53
2018-09-14T00:45:32.801Z,22.03
2018-09-14T00:48:01.681Z,23.73
2018-09-14T00:50:30.447Z,22.97
2018-09-14T00:52:59.345Z,18.67
2018-09-14T00:55:27.982Z,18.60
2018-09-14T00:57:56.705Z,18.20
2018-09-14T01:00:25.237Z,18.57
2018-09-14T01:02:53.867Z,22.67
2018-09-14T01:05:22.784Z,20.07
2018-09-14T01:07:51.520Z,23.90
2018-09-14T01:10:20.079Z,20.97
2018-09-14T01:12:48.841Z,20.40
2018-09-14T01:15:17.544Z,22.40
2018-09-14T01:17:46.059Z,24.40
2018-09-14T01:20:15.083Z,25.90
2018-09-14T01:22:43.629Z,31.93
2018-09-14T01:25:12.247Z,35.80
2018-09-14T01:27:41.034Z,29.33
2018-09-14T01:30:09.783Z,27.13
2018-09-14T01:32:38.618Z,27.37
2018-09-14T01:36:11.437Z,28.83
2018-09-14T01:38:40.824Z,20.23
2018-09-14T01:41:09.895Z,25.37
2018-09-14T01:43:38.802Z,21.80
2018-09-14T01:46:07.791Z,23.13
2018-09-14T01:48:37.098Z,21.73
2018-09-14T01:51:05.786Z,24.87
2018-09-14T01:53:34.418Z,23.87
2018-09-14T01:56:03.968Z,29.70
2018-09-14T01:58:32.714Z,27.30
2018-09-14T02:01:01.752Z,28.43
2018-09-14T02:03:30.418Z,29.67
2018-09-14T02:05:58.878Z,29.43
2018-09-14T02:08:27.427Z,27.23
2018-09-14T02:10:56.015Z,24.40
2018-09-14T02:13:25.589Z,27.87
2018-09-14T02:15:54.349Z,27.40
2018-09-14T02:18:23.063Z,26.20
2018-09-14T02:20:51.646Z,24.20
2018-09-14T02:23:20.228Z,32.40
2018-09-14T02:25:49.101Z,22.27
2018-09-14T02:28:17.654Z,25.63
2018-09-14T02:30:46.290Z,26.30
2018-09-14T02:33:14.835Z,29.30
2018-09-14T02:35:43.387Z,32.10
2018-09-14T02:38:11.937Z,31.97
2018-09-14T02:40:40.536Z,29.80
2018-09-14T02:43:09.239Z,32.17
2018-09-14T02:45:37.790Z,28.97
2018-09-14T02:48:06.622Z,29.07
2018-09-14T02:50:35.385Z,31.40
2018-09-14T02:53:03.934Z,28.03
2018-09-14T02:55:32.668Z,33.23
2018-09-14T02:58:01.435Z,32.17
2018-09-14T03:00:30.047Z,33.80
2018-09-14T03:02:58.715Z,35.27
2018-09-14T03:05:27.419Z,38.67
2018-09-14T03:07:56.770Z,38.13
2018-09-14T03:10:25.343Z,35.20
2018-09-14T03:12:53.934Z,35.63
2018-09-14T03:15:22.718Z,33.03
2018-09-14T03:17:51.321Z,35.67
2018-09-14T03:20:20.226Z,38.87
2018-09-14T03:22:48.801Z,33.50
2018-09-14T03:25:17.654Z,35.10
2018-09-14T03:27:46.423Z,35.73
2018-09-14T03:30:15.203Z,37.70
2018-09-14T03:32:43.721Z,34.50
2018-09-14T03:35:12.296Z,40.57
2018-09-14T03:37:41.311Z,38.23
2018-09-14T03:40:10.153Z,38.33
2018-09-14T03:42:38.801Z,43.37
2018-09-14T03:45:07.574Z,39.37
2018-09-14T03:47:36.262Z,39.73
2018-09-14T03:50:05.058Z,41.20
2018-09-14T03:52:33.616Z,36.10
2018-09-14T03:55:02.199Z,37.03
2018-09-14T03:57:31.000Z,38.77
2018-09-14T03:59:59.835Z,37.13
2018-09-14T04:02:28.523Z,34.13
2018-09-14T04:04:57.349Z,40.57
2018-09-14T04:07:25.993Z,38.73
2018-09-14T04:09:54.845Z,35.00
2018-09-14T04:12:23.595Z,34.93
2018-09-14T04:14:52.354Z,38.23
2018-09-14T04:17:20.963Z,37.07
2018-09-14T04:19:49.493Z,37.43
2018-09-14T04:22:18.058Z,39.07
2018-09-14T04:24:46.886Z,35.40
2018-09-14T04:27:15.784Z,37.87
2018-09-14T04:29:44.509Z,35.90
2018-09-14T04:32:13.410Z,35.33
2018-09-14T04:34:42.075Z,38.67
2018-09-14T04:37:10.710Z,40.47
2018-09-14T04:39:39.326Z,38.20
2018-09-14T04:42:07.857Z,40.17
2018-09-14T04:44:36.535Z,40.77
2018-09-14T04:47:05.104Z,36.83
2018-09-14T04:49:33.898Z,37.40
2018-09-14T04:52:02.482Z,34.03
2018-09-14T04:54:31.224Z,34.50
2018-09-14T04:56:59.942Z,36.90
2018-09-14T04:59:28.734Z,36.03
2018-09-14T05:01:57.586Z,40.33
2018-09-14T05:04:26.615Z,37.00
2018-09-14T05:06:55.618Z,35.53
2018-09-14T05:09:24.430Z,37.67
2018-09-14T05:11:53.078Z,37.47
2018-09-14T05:14:21.801Z,35.83
2018-09-14T05:16:50.536Z,40.27
2018-09-14T05:19:19.298Z,38.17
2018-09-14T05:21:48.338Z,39.20
2018-09-14T05:24:20.880Z,40.13
2018-09-14T05:26:49.510Z,41.10
2018-09-14T05:29:18.298Z,37.07
2018-09-14T05:31:47.055Z,33.87
2018-09-14T05:34:15.712Z,34.03
2018-09-14T05:36:44.352Z,36.77
2018-09-14T05:39:13.449Z,34.23
2018-09-14T05:41:42.061Z,34.67
2018-09-14T05:44:10.673Z,32.23
2018-09-14T05:46:39.343Z,35.63
2018-09-14T05:49:08.098Z,31.83
2018-09-14T05:51:36.654Z,38.10
2018-09-14T05:54:05.228Z,34.63
2018-09-14T05:56:34.110Z,34.07
2018-09-14T05:59:02.824Z,40.20
2018-09-14T06:01:31.613Z,37.30
2018-09-14T06:04:00.395Z,34.67
2018-09-14T06:06:29.265Z,32.93
2018-09-14T06:08:58.364Z,31.83
2018-09-14T06:11:26.949Z,32.97
2018-09-14T06:13:55.865Z,26.97
2018-09-14T06:16:24.658Z,32.83
2018-09-14T06:18:53.339Z,30.50
2018-09-14T06:21:22.085Z,28.33
2018-09-14T06:23:51.119Z,30.93
2018-09-14T06:26:19.866Z,32.43
2018-09-14T06:28:48.898Z,28.97
2018-09-14T06:31:17.737Z,28.77
2018-09-14T06:33:46.847Z,29.20
2018-09-14T06:36:15.520Z,30.77
2018-09-14T06:38:44.066Z,27.80
2018-09-14T06:41:12.668Z,25.87
2018-09-14T06:43:41.569Z,25.07
2018-09-14T06:46:10.354Z,27.03
2018-09-14T06:48:39.288Z,25.80
2018-09-14T06:51:07.811Z,27.67
2018-09-14T06:53:36.369Z,25.37
2018-09-14T06:56:05.038Z,25.80
2018-09-14T06:58:33.698Z,26.87
2018-09-14T07:01:02.479Z,25.20
2018-09-14T07:03:31.110Z,27.53
2018-09-14T07:05:59.814Z,24.97
2018-09-14T07:08:28.596Z,23.77
2018-09-14T07:10:57.132Z,24.73
2018-09-14T07:13:25.783Z,25.03
2018-09-14T07:15:54.428Z,22.40
2018-09-14T07:18:22.961Z,22.50
2018-09-14T07:20:51.653Z,23.30
2018-09-14T07:23:20.672Z,21.43
2018-09-14T07:25:49.491Z,23.77
2018-09-14T07:28:18.072Z,20.40
2018-09-14T07:30:46.686Z,20.37
2018-09-14T07:33:15.308Z,22.43
2018-09-14T07:35:44.209Z,21.00
2018-09-14T07:38:12.778Z,25.70
2018-09-14T07:40:41.556Z,21.33
2018-09-14T07:43:10.156Z,21.13
2018-09-14T07:45:38.718Z,20.80
2018-09-14T07:48:07.788Z,21.93
2018-09-14T07:50:36.550Z,19.90
2018-09-14T07:53:05.358Z,21.80
2018-09-14T07:55:33.932Z,20.47
2018-09-14T07:58:02.601Z,22.60
2018-09-14T08:00:31.238Z,22.27
2018-09-14T08:03:00.176Z,22.43
2018-09-14T08:05:28.895Z,20.73
2018-09-14T08:07:57.968Z,18.27
2018-09-14T08:10:26.759Z,20.20
2018-09-14T08:12:55.855Z,22.17
2018-09-14T08:15:24.547Z,20.60
2018-09-14T08:17:53.373Z,19.40
2018-09-14T08:20:22.171Z,23.83
2018-09-14T08:22:51.162Z,20.93
2018-09-14T08:25:19.897Z,20.63
2018-09-14T08:27:48.774Z,18.43
2018-09-14T08:30:17.956Z,20.20
2018-09-14T08:32:46.800Z,20.03
2018-09-14T08:35:15.678Z,20.93
2018-09-14T08:37:44.502Z,18.70
2018-09-14T08:40:13.466Z,22.20
2018-09-14T08:42:42.435Z,22.47
2018-09-14T08:45:11.119Z,21.37
2018-09-14T08:47:39.736Z,18.77
2018-09-14T08:50:08.593Z,18.83
2018-09-14T08:52:37.262Z,19.80
2018-09-14T08:55:05.998Z,20.83
2018-09-14T08:57:34.701Z,21.57
2018-09-14T09:00:03.354Z,19.27
2018-09-14T09:02:32.044Z,19.87
2018-09-14T09:05:00.893Z,21.57
2018-09-14T09:07:29.694Z,17.97
2018-09-14T09:09:58.559Z,16.00
2018-09-14T09:12:27.186Z,18.27
2018-09-14T09:14:56.091Z,17.10
2018-09-14T09:17:24.854Z,16.17
2018-09-14T09:19:54.215Z,19.17
2018-09-14T09:22:23.302Z,16.23
2018-09-14T09:24:52.023Z,17.97
2018-09-14T09:27:20.882Z,14.57
2018-09-14T09:29:49.723Z,13.43
2018-09-14T09:32:18.428Z,12.17
2018-09-14T09:34:47.690Z,13.93
2018-09-14T09:37:16.373Z,17.07
2018-09-14T09:39:45.444Z,15.40
2018-09-14T09:42:14.272Z,13.63
2018-09-14T09:44:43.447Z,13.97
2018-09-14T09:47:12.231Z,14.10
2018-09-14T09:49:40.997Z,14.97
2018-09-14T09:52:09.595Z,11.53
2018-09-14T09:54:38.176Z,11.03
2018-09-14T09:57:07.194Z,11.60
2018-09-14T09:59:36.193Z,13.40
2018-09-14T10:02:10.191Z,13.43
2018-09-14T10:04:45.382Z,11.40
2018-09-14T10:07:14.311Z,11.07
2018-09-14T10:09:42.898Z,9.60
2018-09-14T10:12:11.802Z,11.30
2018-09-14T10:14:40.476Z,16.10
2018-09-14T10:17:09.224Z,14.13
2018-09-14T10:19:38.343Z,9.13
2018-09-14T10:22:07.342Z,10.30
2018-09-14T10:24:35.994Z,9.73
2018-09-14T10:27:04.765Z,8.60
2018-09-14T10:29:33.479Z,9.23
2018-09-14T10:32:02.416Z,8.73
2018-09-14T10:34:31.464Z,7.17
2018-09-14T10:37:00.100Z,12.70
2018-09-14T10:39:28.873Z,8.47
2018-09-14T10:41:57.549Z,6.87
2018-09-14T10:44:26.298Z,9.70
2018-09-14T10:46:55.069Z,9.10
2018-09-14T10:49:23.687Z,9.33
2018-09-14T10:51:52.381Z,9.57
2018-09-14T10:54:21.006Z,10.03
2018-09-14T10:56:49.917Z,10.50
2018-09-14T10:59:18.920Z,10.85
2018-09-14T11:01:47.914Z,9.23
2018-09-14T11:04:16.720Z,8.23
2018-09-14T11:06:45.611Z,7.17
2018-09-14T11:09:14.534Z,8.45
2018-09-14T11:11:43.354Z,12.05
2018-09-14T11:14:12.421Z,8.13
2018-09-14T11:16:41.385Z,9.50
2018-09-14T11:19:09.921Z,7.78
2018-09-14T11:21:38.606Z,10.10
2018-09-14T11:24:07.428Z,7.37
2018-09-14T11:26:36.354Z,10.45
2018-09-14T11:29:05.162Z,12.05
2018-09-14T11:31:34.075Z,10.63
2018-09-14T11:34:04.389Z,12.28
2018-09-14T11:36:33.491Z,9.58
2018-09-14T11:39:02.090Z,8.38
2018-09-14T11:41:30.721Z,7.87
2018-09-14T11:43:59.515Z,8.43
2018-09-14T11:46:28.079Z,8.60
2018-09-14T11:48:56.905Z,8.75
2018-09-14T11:51:26.005Z,10.63
2018-09-14T11:53:54.834Z,9.13
2018-09-14T11:56:23.499Z,9.05
2018-09-14T11:58:52.229Z,14.07
2018-09-14T12:01:21.206Z,11.43
2018-09-14T12:03:49.971Z,10.90
2018-09-14T12:06:19.304Z,11.43
2018-09-14T12:08:48.423Z,12.30
2018-09-14T12:11:17.673Z,12.80
2018-09-14T12:13:46.663Z,11.67
2018-09-14T12:16:15.689Z,8.13
2018-09-14T12:18:44.466Z,12.27
2018-09-14T12:21:13.384Z,12.47
2018-09-14T12:23:41.984Z,8.93
2018-09-14T12:26:10.970Z,10.83
2018-09-14T12:28:39.625Z,11.90
2018-09-14T12:31:08.629Z,10.27
2018-09-14T12:33:37.824Z,9.80
2018-09-14T12:36:06.611Z,8.97
2018-09-14T12:38:35.392Z,9.07
2018-09-14T12:41:04.121Z,7.87
2018-09-14T12:43:33.280Z,11.70
2018-09-14T12:46:02.277Z,8.90
2018-09-14T12:48:31.037Z,10.05
2018-09-14T12:51:00.126Z,11.10
2018-09-14T12:53:28.921Z,8.33
2018-09-14T12:55:57.878Z,7.97
2018-09-14T12:58:26.938Z,8.25
2018-09-14T13:00:55.979Z,7.95
2018-09-14T13:03:24.689Z,9.43
2018-09-14T13:05:53.692Z,7.35
2018-09-14T13:08:22.675Z,8.98
2018-09-14T13:10:51.564Z,9.23
2018-09-14T13:13:20.490Z,6.92
2018-09-14T13:15:49.382Z,10.60
2018-09-14T13:18:18.322Z,8.50
2018-09-14T13:20:47.166Z,8.60
2018-09-14T13:23:16.100Z,6.42
2018-09-14T13:25:44.945Z,8.95
2018-09-14T13:28:13.809Z,7.40
2018-09-14T13:30:42.950Z,6.17
2018-09-14T13:33:11.718Z,7.87
2018-09-14T13:35:40.577Z,7.35
2018-09-14T13:38:09.714Z,4.47
2018-09-14T13:40:38.469Z,6.72
2018-09-14T13:43:07.313Z,6.90
2018-09-14T13:45:36.214Z,7.47
2018-09-14T13:48:05.220Z,5.12
2018-09-14T13:50:34.124Z,5.67
2018-09-14T13:53:02.778Z,4.03
2018-09-14T13:55:31.545Z,6.17
2018-09-14T13:58:00.427Z,6.65
2018-09-14T14:00:29.377Z,7.35
2018-09-14T14:02:58.143Z,4.47
2018-09-14T14:05:26.954Z,4.90
2018-09-14T14:07:55.712Z,3.95
2018-09-14T14:10:24.872Z,4.03
2018-09-14T14:12:54.023Z,4.60
2018-09-14T14:15:22.745Z,6.85
2018-09-14T14:17:51.857Z,6.10
2018-09-14T14:20:20.968Z,7.47
2018-09-14T14:22:49.868Z,5.72
2018-09-14T14:25:18.595Z,4.53
2018-09-14T14:27:47.200Z,5.08
2018-09-14T14:30:16.182Z,6.22
2018-09-14T14:32:45.118Z,4.58
2018-09-14T14:35:13.729Z,6.03
2018-09-14T14:37:42.568Z,4.87
2018-09-14T14:40:11.323Z,5.15
2018-09-14T14:42:40.208Z,5.28
2018-09-14T14:45:08.952Z,4.12
2018-09-14T14:47:37.869Z,3.75
2018-09-14T14:50:06.545Z,6.75
2018-09-14T14:52:35.536Z,6.45
2018-09-14T14:55:04.172Z,4.15
2018-09-14T14:57:33.002Z,5.08
2018-09-14T15:00:01.953Z,5.25
2018-09-14T15:02:30.592Z,5.35
2018-09-14T15:04:59.462Z,5.65
2018-09-14T15:07:28.403Z,6.70
2018-09-14T15:09:57.167Z,4.50
2018-09-14T15:12:26.032Z,4.30
2018-09-14T15:14:54.798Z,4.00
2018-09-14T15:17:23.542Z,4.72
2018-09-14T15:19:52.195Z,6.55
2018-09-14T15:22:21.346Z,3.45
2018-09-14T15:24:50.391Z,4.70
2018-09-14T15:27:19.100Z,5.22
2018-09-14T15:29:47.964Z,5.10
2018-09-14T15:32:17.173Z,6.10
2018-09-14T15:34:46.312Z,6.95
2018-09-14T15:37:14.996Z,4.12
2018-09-14T15:39:43.829Z,5.92
2018-09-14T15:42:12.453Z,6.00
2018-09-14T15:44:41.596Z,6.70
2018-09-14T15:47:10.721Z,5.30
2018-09-14T15:49:39.742Z,5.55
2018-09-14T15:55:01.244Z,5.05
2018-09-14T15:57:29.988Z,7.75
2018-09-14T15:59:58.591Z,5.50
2018-09-14T16:02:27.651Z,5.05
2018-09-14T16:04:56.244Z,5.67
2018-09-14T16:07:25.135Z,5.00
2018-09-14T16:09:54.099Z,7.95
2018-09-14T16:12:22.959Z,6.67
2018-09-14T16:14:51.851Z,5.37
2018-09-14T16:17:20.591Z,7.28
2018-09-14T16:19:49.276Z,9.08
2018-09-14T16:22:17.985Z,8.55
2018-09-14T16:24:46.875Z,7.80
2018-09-14T16:27:16.371Z,6.62
2018-09-14T16:29:45.081Z,6.45
2018-09-14T16:32:13.812Z,9.38
2018-09-14T16:34:42.635Z,6.27
2018-09-14T16:37:11.489Z,9.13
2018-09-14T16:39:40.236Z,6.20
2018-09-14T16:42:08.967Z,7.60
2018-09-14T16:44:39.763Z,7.27
2018-09-14T16:47:08.851Z,9.13
2018-09-14T16:49:38.421Z,9.70
2018-09-14T16:52:07.157Z,7.63
2018-09-14T16:54:35.816Z,8.17
2018-09-14T16:57:04.838Z,6.10
2018-09-14T16:59:33.376Z,6.17
2018-09-14T17:02:02.426Z,8.53
2018-09-14T17:04:31.334Z,8.33
2018-09-14T17:07:00.364Z,4.73
2018-09-14T17:09:28.919Z,7.60
2018-09-14T17:11:57.692Z,9.23
2018-09-14T17:14:26.653Z,8.07
2018-09-14T17:16:55.404Z,7.37
2018-09-14T17:19:24.140Z,5.33
2018-09-14T17:21:52.902Z,6.53
2018-09-14T17:24:22.189Z,6.13
2018-09-14T17:26:50.917Z,7.80
2018-09-14T17:29:19.975Z,6.47
2018-09-14T17:31:49.074Z,5.87
2018-09-14T17:34:18.249Z,6.37
2018-09-14T17:36:47.727Z,10.23
2018-09-14T17:39:16.654Z,7.40
2018-09-14T17:41:45.363Z,8.27
2018-09-14T17:44:14.476Z,8.40
2018-09-14T17:46:43.460Z,6.53
2018-09-14T17:49:12.273Z,8.20
2018-09-14T17:51:41.137Z,8.50
2018-09-14T17:54:10.068Z,9.20
2018-09-14T17:56:39.004Z,10.13
2018-09-14T17:59:07.713Z,11.87
2018-09-14T18:01:36.642Z,11.80
2018-09-14T18:04:05.706Z,7.97
2018-09-14T18:06:34.445Z,9.20
2018-09-14T18:09:03.637Z,10.60
2018-09-14T18:11:32.416Z,7.63
2018-09-14T18:14:01.344Z,13.37
2018-09-14T18:16:30.424Z,13.33
2018-09-14T18:18:59.397Z,9.73
2018-09-14T18:21:28.835Z,9.03
2018-09-14T18:23:58.013Z,9.90
2018-09-14T18:26:27.160Z,11.23
2018-09-14T18:28:56.102Z,8.13
2018-09-14T18:31:25.517Z,9.03
2018-09-14T18:33:54.138Z,10.47
2018-09-14T18:36:23.080Z,9.63
2018-09-14T18:38:51.933Z,10.77
2018-09-14T18:41:21.107Z,9.60
2018-09-14T18:43:50.095Z,10.43
2018-09-14T18:46:18.909Z,10.63
2018-09-14T18:48:48.185Z,6.90
2018-09-14T18:51:17.355Z,8.97
2018-09-14T18:53:46.327Z,9.47
2018-09-14T18:56:15.085Z,8.70
2018-09-14T18:58:43.873Z,10.57
2018-09-14T19:01:12.682Z,11.90
2018-09-14T19:03:41.593Z,8.97
2018-09-14T19:06:10.292Z,11.57
2018-09-14T19:08:39.579Z,7.77
2018-09-14T19:11:08.297Z,8.60
2018-09-14T19:13:37.077Z,10.87
2018-09-14T19:16:05.995Z,10.43
2018-09-14T19:18:35.052Z,12.17
2018-09-14T19:21:04.309Z,7.33
2018-09-14T19:23:33.433Z,7.10
2018-09-14T19:26:02.409Z,9.23
2018-09-14T19:28:31.176Z,9.43
2018-09-14T19:31:00.357Z,10.07
2018-09-14T19:33:29.483Z,8.73
2018-09-14T19:35:59.657Z,10.63
2018-09-14T19:38:28.937Z,13.80
2018-09-14T19:40:58.068Z,8.70
2018-09-14T19:43:27.053Z,11.00
2018-09-14T19:45:55.844Z,8.87
2018-09-14T19:48:24.849Z,15.47
2018-09-14T19:50:53.987Z,11.77
2018-09-14T19:53:23.219Z,10.17
2018-09-14T19:55:52.636Z,12.30
2018-09-14T19:58:21.515Z,7.43
2018-09-14T20:00:50.606Z,8.70
2018-09-14T20:03:19.594Z,10.30
2018-09-14T20:05:48.627Z,8.93
2018-09-14T20:08:17.358Z,8.73
2018-09-14T20:10:46.228Z,8.70
2018-09-14T20:13:15.098Z,10.83
2018-09-14T20:15:43.707Z,11.27
2018-09-14T20:18:12.430Z,10.00
2018-09-14T20:20:41.482Z,12.27
2018-09-14T20:23:10.286Z,10.50
2018-09-14T20:25:39.269Z,12.47
2018-09-14T20:28:08.297Z,10.73
2018-09-14T20:30:37.356Z,10.90
2018-09-14T20:33:06.300Z,9.10
2018-09-14T20:35:35.374Z,13.47
2018-09-14T20:38:04.615Z,9.17
2018-09-14T20:40:33.751Z,10.10
2018-09-14T20:43:02.429Z,13.10
2018-09-14T20:45:31.552Z,10.60
2018-09-14T20:48:00.205Z,10.73
2018-09-14T20:50:29.216Z,12.67
2018-09-14T20:52:58.159Z,8.83
2018-09-14T20:55:26.697Z,12.03
2018-09-14T20:57:55.377Z,10.90
2018-09-14T21:00:24.811Z,9.63
2018-09-14T21:02:54.846Z,9.60
2018-09-14T21:05:23.849Z,11.47
2018-09-14T21:07:52.664Z,8.90
2018-09-14T21:10:21.714Z,10.73
2018-09-14T21:12:50.629Z,9.93
2018-09-14T21:15:19.396Z,8.90
2018-09-14T21:17:47.963Z,13.53
2018-09-14T21:20:16.506Z,9.77
2018-09-14T21:22:45.289Z,15.33
2018-09-14T21:25:13.822Z,9.20
2018-09-14T21:27:42.643Z,12.03
2018-09-14T21:30:11.615Z,13.30
2018-09-14T21:32:40.497Z,11.47
2018-09-14T21:35:13.988Z,15.23
2018-09-14T21:37:42.943Z,11.67
2018-09-14T21:40:11.776Z,10.23
2018-09-14T21:42:40.333Z,11.00
2018-09-14T21:45:09.060Z,13.23
2018-09-14T21:47:38.038Z,13.23
2018-09-14T21:50:06.613Z,11.57
2018-09-14T21:52:35.807Z,15.47
2018-09-14T21:55:04.433Z,9.90
2018-09-14T21:57:33.019Z,9.70
2018-09-14T22:00:05.874Z,12.80
2018-09-14T22:02:34.470Z,12.27
2018-09-14T22:05:03.342Z,10.20
2018-09-14T22:07:32.140Z,11.87
2018-09-14T22:10:00.694Z,10.77
2018-09-14T22:12:29.250Z,10.70
2018-09-14T22:14:58.221Z,10.20
2018-09-14T22:17:27.136Z,10.60
2018-09-14T22:19:55.935Z,10.23
2018-09-14T22:22:24.496Z,14.00
2018-09-14T22:24:53.643Z,13.27
2018-09-14T22:27:22.512Z,11.87
2018-09-14T22:29:51.522Z,11.83
2018-09-14T22:32:20.057Z,10.40
2018-09-14T22:34:48.596Z,10.00
2018-09-14T22:37:17.130Z,13.60
2018-09-14T22:39:46.783Z,14.20
2018-09-14T22:42:15.471Z,11.70
2018-09-14T22:44:44.274Z,12.73
2018-09-14T22:47:13.114Z,11.80
2018-09-14T22:49:41.782Z,11.93
2018-09-14T22:52:10.673Z,12.77
2018-09-14T22:54:39.308Z,10.07
2018-09-14T22:57:07.994Z,12.03
2018-09-14T22:59:36.535Z,13.57
2018-09-14T23:02:05.456Z,10.83
2018-09-14T23:04:34.088Z,12.77
2018-09-14T23:07:02.587Z,11.33
2018-09-14T23:09:31.418Z,11.47
2018-09-14T23:12:00.064Z,10.10
2018-09-14T23:14:28.791Z,10.67
2018-09-14T23:16:57.681Z,11.20
2018-09-14T23:19:26.193Z,11.30
2018-09-14T23:21:54.976Z,13.83
2018-09-14T23:24:23.809Z,11.13
2018-09-14T23:26:52.512Z,10.30
2018-09-14T23:29:21.029Z,12.10
2018-09-14T23:31:49.597Z,13.27
2018-09-14T23:34:18.119Z,12.60
2018-09-14T23:36:46.715Z,11.80
2018-09-14T23:39:15.636Z,12.70
2018-09-14T23:41:44.656Z,14.63
2018-09-14T23:44:13.284Z,13.67
2018-09-14T23:46:41.826Z,14.40
2018-09-14T23:49:10.324Z,13.77
2018-09-14T23:51:38.870Z,16.03
2018-09-14T23:54:07.595Z,11.50
2018-09-14T23:56:36.320Z,10.77
2018-09-14T23:59:05.549Z,15.97
